createdAt,value
2023-02-03T00:02:24.297Z,1.90
2023-02-03T00:05:27.867Z,1.91
2023-02-03T00:08:31.197Z,1.88
2023-02-03T00:11:34.252Z,1.87
2023-02-03T00:14:38.190Z,1.84
2023-02-03T00:17:41.118Z,1.79
2023-02-03T00:20:43.819Z,1.78
2023-02-03T00:23:46.765Z,1.74
2023-02-03T00:26:49.806Z,1.71
2023-02-03T00:29:52.814Z,1.64
2023-02-03T00:32:55.740Z,1.60
2023-02-03T00:35:58.701Z,1.56
2023-02-03T00:39:02.324Z,1.50
2023-02-03T00:42:06.583Z,1.45
2023-02-03T00:45:09.585Z,1.37
2023-02-03T00:48:12.840Z,1.35
2023-02-03T00:51:15.621Z,1.33
2023-02-03T00:54:18.616Z,1.33
2023-02-03T00:57:21.229Z,1.33
2023-02-03T01:00:24.642Z,1.27
2023-02-03T01:03:27.558Z,1.24
2023-02-03T01:06:31.225Z,1.30
2023-02-03T01:09:35.102Z,1.28
2023-02-03T01:12:38.131Z,1.25
2023-02-03T01:15:48.295Z,1.15
2023-02-03T01:18:51.648Z,1.19
2023-02-03T01:21:54.333Z,1.18
2023-02-03T01:24:57.686Z,1.16
2023-02-03T01:28:00.378Z,1.22
2023-02-03T01:31:18.610Z,1.24
2023-02-03T01:34:21.394Z,1.22
2023-02-03T01:37:24.374Z,1.13
2023-02-03T01:40:27.457Z,1.01
2023-02-03T01:43:33.207Z,0.93
2023-02-03T01:46:49.594Z,0.80
2023-02-03T01:49:59.537Z,0.76
2023-02-03T01:53:07.168Z,0.70
2023-02-03T01:56:11.349Z,0.72
2023-02-03T01:59:17.867Z,0.65
2023-02-03T02:02:21.573Z,0.62
2023-02-03T02:05:32.040Z,0.61
2023-02-03T02:08:36.270Z,0.54
2023-02-03T02:11:39.266Z,0.53
2023-02-03T02:14:46.281Z,0.55
2023-02-03T02:18:01.371Z,0.53
2023-02-03T02:21:16.899Z,0.57
2023-02-03T02:24:35.176Z,0.54
2023-02-03T02:27:49.664Z,0.51
2023-02-03T02:31:33.538Z,0.50
2023-02-03T02:34:49.180Z,0.48
2023-02-03T02:38:03.371Z,0.50
2023-02-03T02:41:19.207Z,0.56
2023-02-03T02:44:25.042Z,0.71
2023-02-03T02:47:28.024Z,0.72
2023-02-03T02:50:37.796Z,0.69
2023-02-03T02:53:46.962Z,0.64
2023-02-03T02:56:56.202Z,0.43
2023-02-03T02:59:59.801Z,0.31
2023-02-03T03:03:15.602Z,0.32
2023-02-03T03:06:33.366Z,0.25
2023-02-03T03:10:02.324Z,0.10
2023-02-03T03:13:11.338Z,0.16
2023-02-03T03:16:21.711Z,0.25
2023-02-03T03:19:32.953Z,0.36
2023-02-03T03:22:44.371Z,0.39
2023-02-03T03:25:52.113Z,0.35
2023-02-03T03:29:03.889Z,0.14
2023-02-03T03:32:06.980Z,0.03
2023-02-03T03:35:10.171Z,-0.11
2023-02-03T03:38:41.376Z,0.16
2023-02-03T03:41:50.085Z,0.00
2023-02-03T03:44:55.420Z,-0.13
2023-02-03T03:48:50.951Z,-0.22
2023-02-03T03:51:58.357Z,-0.35
2023-02-03T03:55:04.153Z,-0.49
2023-02-03T03:58:19.268Z,-0.45
2023-02-03T04:01:24.194Z,-0.53
2023-02-03T04:04:28.623Z,-0.56
2023-02-03T04:07:48.058Z,-0.42
2023-02-03T04:10:51.246Z,-0.43
2023-02-03T04:13:53.808Z,-0.46
2023-02-03T04:16:58.082Z,-0.47
2023-02-03T04:20:01.154Z,-0.43
2023-02-03T04:23:04.299Z,-0.67
2023-02-03T04:26:07.013Z,-0.81
2023-02-03T04:29:10.470Z,-0.87
2023-02-03T04:32:13.417Z,-0.85
2023-02-03T04:35:16.889Z,-0.80
2023-02-03T04:38:19.515Z,-0.59
2023-02-03T04:41:22.537Z,-0.50
2023-02-03T04:44:25.113Z,-0.21
2023-02-03T04:47:28.185Z,-0.22
2023-02-03T04:50:31.612Z,-0.28
2023-02-03T04:53:35.474Z,-0.19
2023-02-03T04:56:38.315Z,-0.12
2023-02-03T04:59:41.328Z,-0.13
2023-02-03T05:02:44.551Z,-0.21
2023-02-03T05:05:49.370Z,-0.09
2023-02-03T05:08:53.157Z,0.02
2023-02-03T05:11:56.309Z,0.35
2023-02-03T05:14:58.992Z,0.22
2023-02-03T05:18:02.026Z,0.46
2023-02-03T05:21:04.999Z,0.58
2023-02-03T05:24:08.246Z,0.63
2023-02-03T05:27:10.961Z,0.44
2023-02-03T05:30:14.106Z,0.37
2023-02-03T05:33:17.314Z,0.00
2023-02-03T05:36:20.280Z,-0.12
2023-02-03T05:39:22.844Z,-0.17
2023-02-03T05:42:25.840Z,-0.22
2023-02-03T05:45:28.480Z,-0.23
2023-02-03T05:48:32.289Z,-0.15
2023-02-03T05:51:35.584Z,-0.21
2023-02-03T05:54:38.497Z,-0.06
2023-02-03T05:57:42.319Z,0.20
2023-02-03T06:00:45.268Z,0.30
2023-02-03T06:03:48.709Z,0.22
2023-02-03T06:06:51.452Z,0.32
2023-02-03T06:09:54.407Z,0.50
2023-02-03T06:12:57.404Z,0.55
2023-02-03T06:16:00.317Z,0.60
2023-02-03T06:19:03.131Z,0.50
2023-02-03T06:22:06.220Z,0.44
2023-02-03T06:25:11.917Z,0.47
2023-02-03T06:28:16.877Z,0.30
2023-02-03T06:31:19.693Z,0.36
2023-02-03T06:34:22.783Z,0.04
2023-02-03T06:37:25.504Z,0.07
2023-02-03T06:40:29.044Z,0.20
2023-02-03T06:43:32.174Z,0.09
2023-02-03T06:46:35.345Z,0.23
2023-02-03T06:49:38.022Z,0.27
2023-02-03T06:52:41.041Z,0.35
2023-02-03T06:55:43.831Z,0.42
2023-02-03T06:58:46.924Z,0.32
2023-02-03T07:01:49.745Z,0.34
2023-02-03T07:04:52.697Z,0.35
2023-02-03T07:07:55.383Z,0.47
2023-02-03T07:10:58.405Z,0.45
2023-02-03T07:14:02.514Z,0.41
2023-02-03T07:17:07.126Z,0.47
2023-02-03T07:20:10.293Z,0.49
2023-02-03T07:23:13.289Z,0.53
2023-02-03T07:26:16.970Z,0.55
2023-02-03T07:29:20.072Z,0.62
2023-02-03T07:32:22.797Z,0.57
2023-02-03T07:35:27.302Z,0.63
2023-02-03T07:38:30.272Z,0.71
2023-02-03T07:41:33.295Z,0.76
2023-02-03T07:44:36.038Z,0.77
2023-02-03T07:47:39.416Z,0.64
2023-02-03T07:50:42.099Z,0.55
2023-02-03T07:53:45.733Z,0.45
2023-02-03T07:56:48.499Z,0.44
2023-02-03T07:59:51.410Z,0.45
2023-02-03T08:02:54.139Z,0.49
2023-02-03T08:05:57.415Z,0.55
2023-02-03T08:09:00.288Z,0.59
2023-02-03T08:12:03.870Z,0.55
2023-02-03T08:15:07.415Z,0.60
2023-02-03T08:18:12.774Z,0.59
2023-02-03T08:21:15.499Z,0.60
2023-02-03T08:24:18.638Z,0.62
2023-02-03T08:27:23.127Z,0.68
2023-02-03T08:30:26.794Z,0.66
2023-02-03T08:36:50.460Z,0.75
2023-02-03T08:39:54.411Z,0.78
2023-02-03T08:42:57.483Z,0.81
2023-02-03T08:46:04.074Z,0.81
2023-02-03T08:49:07.324Z,0.85
2023-02-03T08:52:13.052Z,0.89
2023-02-03T08:55:16.358Z,0.94
2023-02-03T08:58:19.172Z,0.91
2023-02-03T09:01:22.406Z,0.84
2023-02-03T09:04:25.932Z,0.86
2023-02-03T09:07:29.175Z,0.92
2023-02-03T09:10:32.039Z,0.91
2023-02-03T09:13:35.059Z,0.93
2023-02-03T09:16:38.268Z,0.91
2023-02-03T09:19:41.570Z,0.88
2023-02-03T09:22:45.187Z,0.90
2023-02-03T09:25:49.572Z,0.89
2023-02-03T09:28:53.078Z,0.89
2023-02-03T09:31:56.227Z,0.89
2023-02-03T09:34:59.051Z,0.90
2023-02-03T09:38:02.295Z,0.88
2023-02-03T09:41:12.173Z,0.97
2023-02-03T09:44:24.234Z,0.95
2023-02-03T09:47:36.812Z,0.95
2023-02-03T09:50:41.846Z,0.94
2023-02-03T09:53:48.950Z,0.97
2023-02-03T09:56:55.896Z,0.96
2023-02-03T10:00:02.514Z,1.01
2023-02-03T10:03:09.142Z,1.05
2023-02-03T10:06:30.338Z,0.97
2023-02-03T10:09:51.409Z,0.94
2023-02-03T10:13:06.728Z,0.94
2023-02-03T10:16:33.855Z,0.92
2023-02-03T10:20:06.763Z,0.92
2023-02-03T10:23:17.396Z,0.88
2023-02-03T10:26:26.390Z,0.91
2023-02-03T10:29:38.205Z,0.91
2023-02-03T10:32:41.367Z,0.95
2023-02-03T10:35:57.674Z,0.98
2023-02-03T10:39:19.019Z,0.99
2023-02-03T10:42:22.592Z,1.08
2023-02-03T10:45:25.660Z,1.21
2023-02-03T10:48:28.632Z,1.21
2023-02-03T10:51:43.364Z,1.21
2023-02-03T10:54:46.068Z,1.22
2023-02-03T10:57:49.799Z,1.25
2023-02-03T11:01:16.180Z,1.21
2023-02-03T11:04:33.503Z,1.23
2023-02-03T11:07:37.299Z,1.20
2023-02-03T11:10:41.035Z,1.03
2023-02-03T11:13:43.934Z,1.00
2023-02-03T11:16:47.484Z,1.18
2023-02-03T11:20:29.284Z,1.10
2023-02-03T11:23:33.010Z,1.23
2023-02-03T11:27:00.759Z,1.31
2023-02-03T11:30:16.225Z,1.38
2023-02-03T11:33:24.290Z,1.32
2023-02-03T11:36:29.397Z,1.26
2023-02-03T11:39:36.007Z,1.34
2023-02-03T11:42:41.996Z,1.33
2023-02-03T11:45:50.474Z,1.26
2023-02-03T11:49:29.225Z,1.30
2023-02-03T11:53:21.792Z,1.25
2023-02-03T11:56:40.422Z,1.24
2023-02-03T12:00:05.229Z,1.31
2023-02-03T12:03:44.488Z,1.42
2023-02-03T12:07:11.745Z,1.44
2023-02-03T12:10:14.354Z,1.55
2023-02-03T12:13:35.696Z,1.57
2023-02-03T12:17:11.931Z,1.58
2023-02-03T12:20:17.957Z,1.54
2023-02-03T12:23:28.522Z,1.52
2023-02-03T12:27:00.324Z,1.58
2023-02-03T12:30:16.200Z,1.71
2023-02-03T12:33:44.561Z,1.76
2023-02-03T12:36:50.021Z,1.78
2023-02-03T12:39:56.325Z,1.89
2023-02-03T12:43:28.061Z,2.05
2023-02-03T12:46:45.089Z,2.16
2023-02-03T12:49:53.838Z,2.20
2023-02-03T12:53:05.357Z,2.26
2023-02-03T12:56:12.419Z,2.28
2023-02-03T12:59:25.748Z,2.37
2023-02-03T13:02:33.782Z,2.31
2023-02-03T13:06:01.545Z,2.23
2023-02-03T13:09:38.781Z,2.26
2023-02-03T13:12:46.379Z,2.34
2023-02-03T13:15:53.010Z,2.39
2023-02-03T13:19:02.411Z,2.34
2023-02-03T13:22:11.963Z,2.36
2023-02-03T13:25:17.668Z,2.34
2023-02-03T13:28:35.284Z,2.36
2023-02-03T13:31:41.223Z,2.38
2023-02-03T13:35:04.632Z,2.38
2023-02-03T13:38:32.356Z,2.39
2023-02-03T13:41:53.662Z,2.42
2023-02-03T13:45:21.014Z,2.44
2023-02-03T13:48:31.173Z,2.46
2023-02-03T13:51:46.475Z,2.47
2023-02-03T13:54:49.281Z,2.49
2023-02-03T13:57:52.759Z,2.50
2023-02-03T14:00:56.624Z,2.50
2023-02-03T14:04:00.441Z,2.52
2023-02-03T14:07:24.113Z,2.50
2023-02-03T14:10:27.254Z,2.49
2023-02-03T14:13:30.123Z,2.50
2023-02-03T14:16:37.369Z,2.52
2023-02-03T14:19:52.249Z,2.52
2023-02-03T14:22:58.155Z,2.53
2023-02-03T14:26:01.838Z,2.49
2023-02-03T14:29:06.383Z,2.54
2023-02-03T14:32:10.841Z,2.54
2023-02-03T14:35:43.484Z,2.54
2023-02-03T14:38:46.279Z,2.52
2023-02-03T14:42:20.312Z,2.51
2023-02-03T14:45:26.107Z,2.50
2023-02-03T14:48:54.437Z,2.49
2023-02-03T14:52:18.332Z,2.47
2023-02-03T14:55:59.952Z,2.46
2023-02-03T14:59:09.886Z,2.45
2023-02-03T15:02:17.787Z,2.42
2023-02-03T15:05:20.625Z,2.46
2023-02-03T15:08:40.238Z,2.44
2023-02-03T15:11:47.001Z,2.45
2023-02-03T15:14:50.105Z,2.45
2023-02-03T15:17:55.693Z,2.45
2023-02-03T15:20:59.509Z,2.48
2023-02-03T15:24:02.305Z,2.48
2023-02-03T15:27:05.365Z,2.49
2023-02-03T15:30:18.313Z,2.50
2023-02-03T15:33:22.895Z,2.53
2023-02-03T15:36:42.085Z,2.55
2023-02-03T15:40:32.382Z,2.53
2023-02-03T15:43:39.173Z,2.61
2023-02-03T15:46:48.670Z,2.64
2023-02-03T15:50:00.326Z,2.66
2023-02-03T15:53:14.436Z,2.68
2023-02-03T15:56:41.188Z,2.69
2023-02-03T15:59:52.879Z,2.73
2023-02-03T16:02:58.350Z,2.75
2023-02-03T16:06:39.373Z,2.85
2023-02-03T16:09:42.421Z,2.84
2023-02-03T16:12:45.691Z,2.90
2023-02-03T16:16:10.693Z,2.93
2023-02-03T16:19:16.859Z,2.96
2023-02-03T16:22:32.795Z,2.99
2023-02-03T16:25:36.578Z,3.04
2023-02-03T16:28:59.095Z,3.06
2023-02-03T16:32:20.857Z,3.06
2023-02-03T16:35:42.602Z,3.05
2023-02-03T16:39:08.490Z,3.08
2023-02-03T16:42:39.215Z,3.12
2023-02-03T16:46:01.630Z,3.13
2023-02-03T16:49:23.247Z,3.21
2023-02-03T16:52:26.431Z,3.29
2023-02-03T16:55:31.768Z,3.42
2023-02-03T16:58:35.028Z,3.43
2023-02-03T17:01:38.475Z,3.45
2023-02-03T17:04:42.030Z,3.50
2023-02-03T17:07:44.833Z,3.51
2023-02-03T17:10:48.902Z,3.53
2023-02-03T17:13:52.610Z,3.54
2023-02-03T17:16:56.425Z,3.54
2023-02-03T17:19:59.928Z,3.54
2023-02-03T17:23:03.482Z,3.57
2023-02-03T17:26:07.178Z,3.59
2023-02-03T17:29:11.028Z,3.63
2023-02-03T17:32:15.896Z,3.63
2023-02-03T17:35:20.233Z,3.65
2023-02-03T17:38:23.582Z,3.64
2023-02-03T17:54:56.952Z,3.66
2023-02-03T17:57:59.699Z,3.57
2023-02-03T18:01:18.785Z,3.76
2023-02-03T18:04:25.120Z,3.74
2023-02-03T18:07:29.805Z,3.77
2023-02-03T18:10:33.988Z,3.81
2023-02-03T18:13:39.988Z,3.88
2023-02-03T18:16:44.134Z,3.90
2023-02-03T18:19:54.743Z,3.94
2023-02-03T18:22:59.472Z,3.83
2023-02-03T18:26:03.774Z,3.80
2023-02-03T18:29:07.842Z,3.79
2023-02-03T18:32:12.047Z,3.81
2023-02-03T18:35:17.743Z,3.95
2023-02-03T18:38:21.448Z,4.08
2023-02-03T18:41:26.977Z,4.15
2023-02-03T18:44:31.896Z,4.36
2023-02-03T18:47:38.110Z,4.55
2023-02-03T18:50:50.634Z,4.60
2023-02-03T18:54:00.031Z,4.64
2023-02-03T18:57:05.289Z,4.76
2023-02-03T19:00:12.426Z,4.84
2023-02-03T19:03:15.993Z,5.00
2023-02-03T19:06:20.999Z,5.02
2023-02-03T19:09:25.890Z,5.02
2023-02-03T19:12:29.995Z,5.09
2023-02-03T19:15:36.994Z,5.10
2023-02-03T19:18:41.452Z,5.07
2023-02-03T19:21:45.093Z,4.98
2023-02-03T19:24:53.385Z,4.90
2023-02-03T19:27:58.632Z,4.92
2023-02-03T19:31:12.151Z,4.88
2023-02-03T19:34:17.554Z,4.89
2023-02-03T19:37:21.770Z,4.82
2023-02-03T19:40:26.107Z,4.78
2023-02-03T19:43:33.191Z,4.74
2023-02-03T19:46:38.357Z,4.73
2023-02-03T19:49:43.005Z,4.67
2023-02-03T19:52:50.859Z,4.64
2023-02-03T19:55:56.361Z,4.61
2023-02-03T19:59:03.675Z,4.58
2023-02-03T20:02:14.361Z,4.58
2023-02-03T20:05:22.324Z,4.55
2023-02-03T20:08:26.085Z,4.51
2023-02-03T20:11:30.382Z,4.50
2023-02-03T20:14:35.625Z,4.54
2023-02-03T20:17:40.938Z,4.56
2023-02-03T20:20:44.545Z,4.57
2023-02-03T20:23:49.949Z,4.65
2023-02-03T20:26:57.640Z,4.57
2023-02-03T20:30:06.700Z,4.59
2023-02-03T20:33:10.708Z,4.52
2023-02-03T20:36:15.611Z,4.54
2023-02-03T20:39:21.135Z,4.53
2023-02-03T20:42:25.466Z,4.57
2023-02-03T20:45:32.752Z,4.56
2023-02-03T20:48:37.058Z,4.50
2023-02-03T20:51:48.502Z,4.46
2023-02-03T20:54:54.618Z,4.47
2023-02-03T20:57:58.952Z,4.39
2023-02-03T21:01:18.375Z,4.39
2023-02-03T21:04:41.414Z,4.36
2023-02-03T21:07:45.380Z,4.37
2023-02-03T21:10:49.425Z,4.36
2023-02-03T21:13:54.734Z,4.35
2023-02-03T21:16:58.566Z,4.31
2023-02-03T21:20:03.142Z,4.32
2023-02-03T21:23:12.821Z,4.34
2023-02-03T21:26:24.228Z,4.27
2023-02-03T21:29:34.244Z,4.23
2023-02-03T21:32:39.619Z,4.23
2023-02-03T21:35:43.458Z,4.19
2023-02-03T21:38:57.665Z,4.19
2023-02-03T21:42:41.290Z,4.12
2023-02-03T21:45:45.815Z,4.14
2023-02-03T21:48:59.106Z,4.13
2023-02-03T21:52:02.973Z,4.09
2023-02-03T21:55:15.712Z,4.10
2023-02-03T21:58:23.005Z,4.10
2023-02-03T22:01:27.460Z,4.06
2023-02-03T22:04:32.144Z,4.03
2023-02-03T22:07:35.752Z,4.08
2023-02-03T22:10:39.731Z,4.12
2023-02-03T22:13:43.146Z,4.10
2023-02-03T22:16:46.707Z,4.13
2023-02-03T22:19:49.510Z,4.21
2023-02-03T22:22:52.640Z,4.30
2023-02-03T22:25:55.512Z,4.34
2023-02-03T22:28:58.654Z,4.35
2023-02-03T22:32:01.462Z,4.37
2023-02-03T22:35:04.731Z,4.42
2023-02-03T22:38:07.773Z,4.42
2023-02-03T22:41:14.777Z,4.49
2023-02-03T22:44:18.544Z,4.45
2023-02-03T22:47:22.207Z,4.42
2023-02-03T22:50:35.111Z,4.45
2023-02-03T22:53:40.049Z,4.44
2023-02-03T22:56:42.666Z,4.46
2023-02-03T22:59:45.761Z,4.46
2023-02-03T23:02:48.649Z,4.52
2023-02-03T23:05:51.763Z,4.57
2023-02-03T23:08:55.770Z,4.60
2023-02-03T23:11:58.804Z,4.74
2023-02-03T23:15:01.591Z,4.78
2023-02-03T23:18:04.696Z,4.81
2023-02-03T23:21:07.424Z,4.66
2023-02-03T23:24:10.470Z,4.62
2023-02-03T23:27:13.202Z,4.61
2023-02-03T23:30:16.636Z,4.53
2023-02-03T23:33:19.341Z,4.57
2023-02-03T23:36:22.344Z,4.54
2023-02-03T23:39:25.023Z,4.49
2023-02-03T23:42:28.315Z,4.50
2023-02-03T23:45:31.051Z,4.47
2023-02-03T23:48:34.055Z,4.45
2023-02-03T23:51:36.702Z,4.44
2023-02-03T23:54:39.761Z,4.48
2023-02-03T23:57:42.871Z,4.48
